Nautilus — OUYX2 — position and weather

sailwx.info

Track history (hours):
 
Tides and Currents Weather Stations Pressure Air Temp Water Temp Dewpoint Dewpoint Depression Visibility Wind Speed Wind Dir Waves Ship Positions

Nautilus

Last reported at 2018-Feb-25 01:30 UTC. Time now 2018-Feb-25 02:00 UTC.
Position N 55°38' E 014°41'.

Length 120 m; draft 5 m.

Type: Ship. MMSI: 219425000.

Date/timePositionNaut miles runAvg speedWind from/ knotsBaromVisibWave heightAir tempDewpointWater temp
2018-Feb-25 01:30N 55°38' E 014°41'713.5
2018-Feb-25 01:00N 55°44' E 014°45'713.6
2018-Feb-25 00:30N 55°51' E 014°49'713.6
2018-Feb-25 00:00N 55°57' E 014°54'613.0
2018-Feb-24 23:30N 56°04' E 014°55'611.7
2018-Feb-24 23:00N 56°09' E 014°52'0 0.0
2018-Feb-24 08:50N 56°10' E 014°52'0 0.4
2018-Feb-24 08:30N 56°09' E 014°52'2 5.0
2018-Feb-24 08:00N 56°07' E 014°53'4 8.2
2018-Feb-24 07:30N 56°03' E 014°54'5 9.9
2018-Feb-24 07:00N 55°58' E 014°54'611.8
2018-Feb-24 06:30N 55°52' E 014°51'611.5
2018-Feb-24 06:00N 55°47' E 014°49'611.4
2018-Feb-24 05:30N 55°41' E 014°46'611.5
2018-Feb-24 05:00N 55°36' E 014°44'811.4
2018-Feb-24 04:18N 55°28' E 014°40'311.0
2018-Feb-24 04:00N 55°25' E 014°39'611.1
2018-Feb-24 03:29N 55°20' E 014°33'611.4
2018-Feb-24 02:56N 55°15' E 014°26'511.7
2018-Feb-24 02:31N 55°11' E 014°20'611.5
2018-Feb-24 02:00N 55°10' E 014°10'1512.0
2018-Feb-24 00:46N 55°11' E 013°45'1712.2
2018-Feb-23 23:23N 55°13' E 013°15'512.2
2018-Feb-23 22:56N 55°13' E 013°06'612.2
2018-Feb-23 22:29N 55°15' E 012°56'611.9
2018-Feb-23 22:00N 55°16' E 012°47'510.9
2018-Feb-23 21:30N 55°19' E 012°38'612.3
2018-Feb-23 20:59N 55°25' E 012°40'511.4
2018-Feb-23 20:30N 55°30' E 012°43'5 9.2
2018-Feb-23 20:00N 55°34' E 012°48'5 9.3
2018-Feb-23 19:30N 55°37' E 012°54'5 9.8
2018-Feb-23 19:00N 55°42' E 012°54'612.2
2018-Feb-23 18:30N 55°47' E 012°48'612.6
2018-Feb-23 18:00N 55°52' E 012°41'611.2
2018-Feb-23 17:30N 55°58' E 012°40'611.9
2018-Feb-23 17:00N 56°04' E 012°38'612.1
2018-Feb-23 16:30N 56°08' E 012°30'611.7
2018-Feb-23 16:00N 56°13' E 012°25'612.0
2018-Feb-23 15:30N 56°18' E 012°21'2212.0
2018-Feb-23 13:40N 56°40' E 012°11'912.4
2018-Feb-23 12:59N 56°48' E 012°07'912.6
2018-Feb-23 12:17N 56°56' E 012°03'413.0
2018-Feb-23 11:59N 57°00' E 012°01'812.8
2018-Feb-23 11:23N 57°07' E 011°56'512.6
2018-Feb-23 11:00N 57°12' E 011°53'612.9
2018-Feb-23 10:30N 57°18' E 011°50'612.8
2018-Feb-23 10:00N 57°24' E 011°45'612.6
2018-Feb-23 09:30N 57°30' E 011°40'612.0
2018-Feb-23 09:00N 57°36' E 011°39'611.1
2018-Feb-23 08:30N 57°40' E 011°46'4 7.4
2018-Feb-23 08:00N 57°41' E 011°52'0 0.0
2018-Feb-23 07:30N 57°41' E 011°52'0 0.0
2018-Feb-23 06:57N 57°41' E 011°52'0 0.0
2018-Feb-23 06:30N 57°41' E 011°52'0 0.0
2018-Feb-23 06:00N 57°41' E 011°52'0 0.0
2018-Feb-23 05:30N 57°41' E 011°52'0 0.0
2018-Feb-23 05:00N 57°41' E 011°52'0 0.0
2018-Feb-23 04:30N 57°41' E 011°52'0 0.0
2018-Feb-23 04:00N 57°41' E 011°52'0 0.0
2018-Feb-23 03:30N 57°41' E 011°52'0 0.0
2018-Feb-23 03:00N 57°41' E 011°52'0 0.0
2018-Feb-23 02:30N 57°41' E 011°52'0 0.0
2018-Feb-23 02:00N 57°41' E 011°52'0 0.0
2018-Feb-23 01:30N 57°41' E 011°52'0 0.0
2018-Feb-23 01:00N 57°41' E 011°52'0 0.0
2018-Feb-23 00:30N 57°41' E 011°52'0 0.0
2018-Feb-23 00:00N 57°41' E 011°52'0 0.0
2018-Feb-22 23:30N 57°41' E 011°52'0 0.0
2018-Feb-22 23:00N 57°41' E 011°52'0 0.0
2018-Feb-22 22:30N 57°41' E 011°52'0 0.0
2018-Feb-22 22:00N 57°41' E 011°52'0 0.0
2018-Feb-22 21:30N 57°41' E 011°52'0 0.0
2018-Feb-22 21:00N 57°41' E 011°52'0 0.0
2018-Feb-22 20:30N 57°41' E 011°52'0 0.0
2018-Feb-22 20:00N 57°41' E 011°52'0 0.0
2018-Feb-22 19:30N 57°41' E 011°52'0 0.0
2018-Feb-22 19:00N 57°41' E 011°52'0 0.0
2018-Feb-22 18:30N 57°41' E 011°52'0 0.0
2018-Feb-22 18:00N 57°41' E 011°52'0 0.0
2018-Feb-22 17:30N 57°41' E 011°52'0 0.0
2018-Feb-22 17:00N 57°41' E 011°52'0 0.0
2018-Feb-22 16:30N 57°41' E 011°52'0 0.0
2018-Feb-22 16:00N 57°41' E 011°52'0 0.0
2018-Feb-22 15:30N 57°41' E 011°52'0 0.0
2018-Feb-22 15:00N 57°41' E 011°52'0 0.0
2018-Feb-22 14:30N 57°41' E 011°52'0 0.3
2018-Feb-22 14:00N 57°41' E 011°52'2 4.0
2018-Feb-22 13:30N 57°41' E 011°49'713.0
2018-Feb-22 13:01N 57°36' E 011°40'3 4.8
2018-Feb-22 12:28N 57°34' E 011°40'0 0.0
2018-Feb-22 11:58N 57°34' E 011°40'0 0.0
2018-Feb-22 11:28N 57°34' E 011°40'0 0.0
2018-Feb-22 10:58N 57°34' E 011°40'0 0.0
2018-Feb-22 10:28N 57°34' E 011°40'0 0.2
2018-Feb-22 09:58N 57°34' E 011°40'0 0.1
2018-Feb-22 09:28N 57°34' E 011°40'0 0.0
2018-Feb-22 08:58N 57°34' E 011°40'0 0.1
2018-Feb-22 08:28N 57°34' E 011°40'0 0.0
2018-Feb-22 07:58N 57°34' E 011°40'0 0.0
2018-Feb-22 07:28N 57°34' E 011°40'0 0.0
2018-Feb-22 06:58N 57°34' E 011°40'0 0.0
2018-Feb-22 06:28N 57°34' E 011°40'0 0.0
2018-Feb-22 05:58N 57°34' E 011°40'0 0.0
2018-Feb-22 05:28N 57°34' E 011°40'0 0.0
2018-Feb-22 04:58N 57°34' E 011°40'0 0.0
2018-Feb-22 04:28N 57°34' E 011°40'0 0.1
2018-Feb-22 03:58N 57°34' E 011°40'0 0.0
2018-Feb-22 03:28N 57°34' E 011°40'0 0.0
2018-Feb-22 02:58N 57°34' E 011°40'0 0.0
2018-Feb-22 02:28N 57°34' E 011°40'0 0.0
2018-Feb-22 01:58N 57°34' E 011°40'0 0.1
2018-Feb-22 01:28N 57°34' E 011°40'0 0.0
2018-Feb-22 00:58N 57°34' E 011°40'0 0.0
2018-Feb-22 00:28N 57°34' E 011°40'0 0.0
2018-Feb-21 23:58N 57°34' E 011°40'0 0.0
2018-Feb-21 23:28N 57°34' E 011°40'0 0.1
2018-Feb-21 22:58N 57°34' E 011°40'0 0.0
2018-Feb-21 22:28N 57°34' E 011°40'0 0.0
2018-Feb-21 21:58N 57°34' E 011°40'0 0.0
2018-Feb-21 21:28N 57°34' E 011°40'0 0.0
2018-Feb-21 20:58N 57°34' E 011°40'0 0.0
2018-Feb-21 20:28N 57°34' E 011°40'0 0.0
2018-Feb-21 19:58N 57°34' E 011°40'0 0.1
2018-Feb-21 19:28N 57°34' E 011°40'1 1.5
2018-Feb-21 19:00N 57°34' E 011°40'1 1.6
2018-Feb-21 18:30N 57°35' E 011°41'510.0
2018-Feb-21 18:01N 57°30' E 011°39'815.4
2018-Feb-21 17:31N 57°23' E 011°45'815.4
2018-Feb-21 17:00N 57°16' E 011°51'715.0
2018-Feb-21 16:30N 57°09' E 011°56'714.7
2018-Feb-21 16:00N 57°02' E 011°60'4214.3
2018-Feb-21 13:03N 56°22' E 012°22'114.4
2018-Feb-21 13:00N 56°21' E 012°23'715.1
2018-Feb-21 12:30N 56°14' E 012°27'815.5
2018-Feb-21 12:00N 56°07' E 012°33'815.0
2018-Feb-21 11:30N 56°01' E 012°41'714.6
2018-Feb-21 11:00N 55°54' E 012°44'611.6
2018-Feb-21 10:30N 55°48' E 012°47'510.6
2018-Feb-21 10:00N 55°44' E 012°53'510.3
2018-Feb-21 09:30N 55°39' E 012°57'5 9.6
2018-Feb-21 09:00N 55°36' E 012°51'611.1
2018-Feb-21 08:30N 55°31' E 012°45'5 9.3
2018-Feb-21 08:00N 55°27' E 012°42'4 8.9
2018-Feb-21 07:30N 55°23' E 012°41'4 8.7
2018-Feb-21 07:00N 55°18' E 012°41'5 9.2
2018-Feb-21 06:30N 55°17' E 012°48'5 9.1
2018-Feb-21 06:00N 55°16' E 012°56'5 9.2
2018-Feb-21 05:30N 55°15' E 013°04'4 8.9
2018-Feb-21 05:00N 55°15' E 013°12'7 9.0
2018-Feb-21 04:17N 55°15' E 013°23'13 9.1
2018-Feb-21 02:49N 55°14' E 013°47'3 9.1
2018-Feb-21 02:27N 55°14' E 013°52'5 9.2
2018-Feb-21 01:51N 55°14' E 014°02'4 9.3
2018-Feb-21 01:26N 55°14' E 014°09'4 8.9
2018-Feb-21 00:57N 55°14' E 014°17'4 9.2
2018-Feb-21 00:28N 55°18' E 014°21'4 9.0
2018-Feb-20 23:59N 55°21' E 014°26'4 9.0
2018-Feb-20 23:30N 55°24' E 014°31'7 8.8
2018-Feb-20 22:42N 55°29' E 014°40'2 9.0
2018-Feb-20 22:30N 55°30' E 014°43'5 9.0
2018-Feb-20 22:00N 55°32' E 014°50'5 9.0
2018-Feb-20 21:27N 55°34' E 014°58'5 9.0
2018-Feb-20 20:57N 55°36' E 015°05'4 9.1
2018-Feb-20 20:30N 55°38' E 015°11'5 9.0
2018-Feb-20 20:00N 55°40' E 015°18'4 9.0
2018-Feb-20 19:30N 55°43' E 015°25'5 9.1
2018-Feb-20 19:01N 55°45' E 015°32'5 9.1
2018-Feb-20 18:30N 55°47' E 015°39'5 9.2
2018-Feb-20 18:00N 55°49' E 015°47'5 9.0
2018-Feb-20 17:30N 55°51' E 015°54'5 9.0
2018-Feb-20 17:00N 55°54' E 016°00'5 9.0
2018-Feb-20 16:30N 55°56' E 016°07'5 9.2
2018-Feb-20 16:01N 55°59' E 016°14'5 9.2
2018-Feb-20 15:30N 56°01' E 016°21'5 9.4
2018-Feb-20 15:00N 56°04' E 016°28'5 9.4
2018-Feb-20 14:30N 56°06' E 016°35'5 9.2
2018-Feb-20 14:00N 56°09' E 016°42'5 9.1
2018-Feb-20 13:30N 56°13' E 016°45'5 9.2
2018-Feb-20 13:01N 56°17' E 016°48'5 9.2
2018-Feb-20 12:29N 56°22' E 016°52'5 9.2
2018-Feb-20 11:59N 56°26' E 016°55'14812.7
2018-Feb-20 00:18N 58°52' E 017°43'25 6.9
2018-Feb-19 20:38N 59°17' E 017°34'310.5
2018-Feb-19 20:22N 59°19' E 017°32'30 1.2
2018-Feb-18 19:46N 58°50' E 017°44'310.3
2018-Feb-18 19:30N 58°48' E 017°46'612.1
2018-Feb-18 19:00N 58°43' E 017°52'14310.3
2018-Feb-18 05:01N 56°22' E 017°01'110.4
2018-Feb-18 04:57N 56°21' E 017°01'510.4
2018-Feb-18 04:30N 56°17' E 016°57'510.6
2018-Feb-18 04:00N 56°12' E 016°54'510.8
2018-Feb-18 03:30N 56°07' E 016°50'510.5
2018-Feb-18 03:00N 56°03' E 016°44'510.6
2018-Feb-18 02:31N 56°00' E 016°36'510.7
2018-Feb-18 02:00N 55°57' E 016°29'611.2
2018-Feb-18 01:30N 55°53' E 016°21'611.7
2018-Feb-18 01:00N 55°49' E 016°13'611.7
2018-Feb-18 00:30N 55°46' E 016°05'611.7
2018-Feb-18 00:01N 55°42' E 015°57'511.0
2018-Feb-17 23:30N 55°39' E 015°48'611.0
2018-Feb-17 23:00N 55°36' E 015°40'510.6
2018-Feb-17 22:31N 55°33' E 015°33'510.7
2018-Feb-17 22:00N 55°30' E 015°26'510.8
2018-Feb-17 21:31N 55°26' E 015°18'610.9
2018-Feb-17 21:00N 55°23' E 015°11'612.1
2018-Feb-17 20:30N 55°23' E 015°00'612.2
2018-Feb-17 20:00N 55°24' E 014°49'611.4
2018-Feb-17 19:29N 55°24' E 014°39'611.8
2018-Feb-17 19:01N 55°19' E 014°33'611.9
2018-Feb-17 18:30N 55°15' E 014°26'611.3
2018-Feb-17 18:00N 55°11' E 014°19'712.0
2018-Feb-17 17:24N 55°10' E 014°07'812.2
2018-Feb-17 16:46N 55°10' E 013°53'312.1
2018-Feb-17 16:30N 55°10' E 013°47'1712.1
2018-Feb-17 15:03N 55°12' E 013°17'112.0
2018-Feb-17 14:57N 55°12' E 013°14'612.0
2018-Feb-17 14:28N 55°12' E 013°04'511.8
2018-Feb-17 14:00N 55°14' E 012°55'611.8
2018-Feb-17 13:30N 55°16' E 012°46'510.6
2018-Feb-17 13:00N 55°19' E 012°38'611.8
2018-Feb-17 12:30N 55°25' E 012°40'611.8
2018-Feb-17 12:00N 55°31' E 012°44'5 9.8
2018-Feb-17 11:30N 55°34' E 012°49'510.0
2018-Feb-17 11:01N 55°38' E 012°55'510.7
2018-Feb-17 10:30N 55°43' E 012°52'612.8
2018-Feb-17 10:01N 55°48' E 012°46'612.5
2018-Feb-17 09:30N 55°54' E 012°39'611.4
2018-Feb-17 09:00N 55°59' E 012°40'612.5
2018-Feb-17 08:30N 56°05' E 012°36'612.9
2018-Feb-17 08:00N 56°09' E 012°27'713.1
2018-Feb-17 07:30N 56°15' E 012°23'5513.1
2018-Feb-17 03:19N 57°08' E 011°56'412.8
2018-Feb-17 03:00N 57°12' E 011°54'612.7
2018-Feb-17 02:31N 57°18' E 011°49'612.7
2018-Feb-17 02:01N 57°24' E 011°44'713.4
2018-Feb-17 01:30N 57°30' E 011°39'612.0
2018-Feb-17 01:00N 57°36' E 011°39'611.5
2018-Feb-17 00:30N 57°40' E 011°46'4 7.2
2018-Feb-17 00:00N 57°41' E 011°52'0 0.0
2018-Feb-16 23:28N 57°41' E 011°52'0 0.0
2018-Feb-16 22:58N 57°41' E 011°52'0 0.0
2018-Feb-16 22:28N 57°41' E 011°52'0 0.0
2018-Feb-16 21:58N 57°41' E 011°52'0 0.0
2018-Feb-16 21:28N 57°41' E 011°52'0 0.0
2018-Feb-16 20:58N 57°41' E 011°52'0 0.0
2018-Feb-16 20:28N 57°41' E 011°52'0 0.0
2018-Feb-16 19:58N 57°41' E 011°52'0 0.0
2018-Feb-16 19:28N 57°41' E 011°52'0 0.0
2018-Feb-16 18:58N 57°41' E 011°52'0 0.0
2018-Feb-16 18:28N 57°41' E 011°52'0 0.0
2018-Feb-16 17:58N 57°41' E 011°52'0 0.0
2018-Feb-16 17:28N 57°41' E 011°52'0 0.0
2018-Feb-16 16:58N 57°41' E 011°52'0 0.0
2018-Feb-16 16:28N 57°41' E 011°52'0 0.0
2018-Feb-16 15:58N 57°41' E 011°52'0 0.0
2018-Feb-16 15:28N 57°41' E 011°52'0 0.0
2018-Feb-16 14:58N 57°41' E 011°52'0 0.0
2018-Feb-16 14:28N 57°41' E 011°52'0 0.0
2018-Feb-16 13:58N 57°41' E 011°52'0 0.0
2018-Feb-16 13:28N 57°41' E 011°52'0 0.0
2018-Feb-16 12:58N 57°41' E 011°52'0 0.0
2018-Feb-16 12:28N 57°41' E 011°52'0 0.0
2018-Feb-16 11:58N 57°41' E 011°52'0 0.0
2018-Feb-16 11:28N 57°41' E 011°52'0 0.8
2018-Feb-16 11:00N 57°41' E 011°52'4 7.0
2018-Feb-16 10:30N 57°40' E 011°46'612.2
2018-Feb-16 10:00N 57°35' E 011°39'510.6
2018-Feb-16 09:30N 57°29' E 011°40'511.0
2018-Feb-16 09:00N 57°24' E 011°44'611.5
2018-Feb-16 08:30N 57°19' E 011°48'611.5
2018-Feb-16 08:00N 57°14' E 011°53'611.8
2018-Feb-16 07:29N 57°08' E 011°57'611.9
2018-Feb-16 07:00N 57°03' E 011°60'4011.5
2018-Feb-16 03:33N 56°25' E 012°20'311.6
2018-Feb-16 03:17N 56°22' E 012°22'411.2
2018-Feb-16 02:55N 56°18' E 012°24'410.9
2018-Feb-16 02:30N 56°14' E 012°27'5 9.6
2018-Feb-16 02:00N 56°09' E 012°30'713.4
2018-Feb-16 01:30N 56°04' E 012°38'714.7
2018-Feb-16 01:00N 55°57' E 012°43'714.4
2018-Feb-16 00:30N 55°50' E 012°45'815.3
2018-Feb-16 00:00N 55°44' E 012°52'611.8
2018-Feb-15 23:30N 55°38' E 012°56'611.4
2018-Feb-15 23:00N 55°34' E 012°49'611.3
2018-Feb-15 22:30N 55°29' E 012°43'714.7
2018-Feb-15 22:00N 55°22' E 012°41'611.6
2018-Feb-15 21:29N 55°17' E 012°47'613.4
2018-Feb-15 21:00N 55°16' E 012°59'713.6
2018-Feb-15 20:28N 55°16' E 013°12'1813.7
2018-Feb-15 19:11N 55°15' E 013°42'2112.8
2018-Feb-15 17:33N 55°16' E 014°19'112.5
2018-Feb-15 17:28N 55°17' E 014°20'712.8
2018-Feb-15 16:54N 55°23' E 014°28'513.3
2018-Feb-15 16:30N 55°27' E 014°34'713.7
2018-Feb-15 16:00N 55°31' E 014°44'713.7
2018-Feb-15 15:29N 55°34' E 014°55'713.7
2018-Feb-15 14:58N 55°38' E 015°06'613.5
2018-Feb-15 14:30N 55°41' E 015°16'713.6
2018-Feb-15 14:00N 55°44' E 015°26'713.7
2018-Feb-15 13:30N 55°47' E 015°37'713.7
2018-Feb-15 13:00N 55°51' E 015°47'713.7
2018-Feb-15 12:30N 55°54' E 015°58'713.8
2018-Feb-15 12:00N 55°58' E 016°08'611.5
2018-Feb-15 11:30N 56°01' E 016°17'4 8.0
2018-Feb-15 11:00N 56°03' E 016°23'4 8.1
2018-Feb-15 10:31N 56°05' E 016°30'4 8.9
2018-Feb-15 10:00N 56°07' E 016°37'612.4
2018-Feb-15 09:30N 56°11' E 016°45'612.7
2018-Feb-15 09:00N 56°17' E 016°49'612.7
2018-Feb-15 08:30N 56°23' E 016°54'  
Track history (hours):
 
Tides and Currents Weather Stations Pressure Air Temp Water Temp Dewpoint Dewpoint Depression Visibility Wind Speed Wind Dir Waves Ship Positions

Nautilus

Last reported at 2018-Feb-25 01:30 UTC. Time now 2018-Feb-25 02:00 UTC.
Position N 55°38' E 014°41'.

Length 120 m; draft 5 m.

Type: Ship. MMSI: 219425000.

Date/timePositionNaut miles runAvg speedWind from/ knotsBaromVisibWave heightAir tempDewpointWater temp
2018-Feb-25 01:30N 55°38' E 014°41'713.5
2018-Feb-25 01:00N 55°44' E 014°45'713.6
2018-Feb-25 00:30N 55°51' E 014°49'713.6
2018-Feb-25 00:00N 55°57' E 014°54'613.0
2018-Feb-24 23:30N 56°04' E 014°55'611.7
2018-Feb-24 23:00N 56°09' E 014°52'0 0.0
2018-Feb-24 08:50N 56°10' E 014°52'0 0.4
2018-Feb-24 08:30N 56°09' E 014°52'2 5.0
2018-Feb-24 08:00N 56°07' E 014°53'4 8.2
2018-Feb-24 07:30N 56°03' E 014°54'5 9.9
2018-Feb-24 07:00N 55°58' E 014°54'611.8
2018-Feb-24 06:30N 55°52' E 014°51'611.5
2018-Feb-24 06:00N 55°47' E 014°49'611.4
2018-Feb-24 05:30N 55°41' E 014°46'611.5
2018-Feb-24 05:00N 55°36' E 014°44'811.4
2018-Feb-24 04:18N 55°28' E 014°40'311.0
2018-Feb-24 04:00N 55°25' E 014°39'611.1
2018-Feb-24 03:29N 55°20' E 014°33'611.4
2018-Feb-24 02:56N 55°15' E 014°26'511.7
2018-Feb-24 02:31N 55°11' E 014°20'611.5
2018-Feb-24 02:00N 55°10' E 014°10'1512.0
2018-Feb-24 00:46N 55°11' E 013°45'1712.2
2018-Feb-23 23:23N 55°13' E 013°15'512.2
2018-Feb-23 22:56N 55°13' E 013°06'612.2
2018-Feb-23 22:29N 55°15' E 012°56'611.9
2018-Feb-23 22:00N 55°16' E 012°47'510.9
2018-Feb-23 21:30N 55°19' E 012°38'612.3
2018-Feb-23 20:59N 55°25' E 012°40'511.4
2018-Feb-23 20:30N 55°30' E 012°43'5 9.2
2018-Feb-23 20:00N 55°34' E 012°48'5 9.3
2018-Feb-23 19:30N 55°37' E 012°54'5 9.8
2018-Feb-23 19:00N 55°42' E 012°54'612.2
2018-Feb-23 18:30N 55°47' E 012°48'612.6
2018-Feb-23 18:00N 55°52' E 012°41'611.2
2018-Feb-23 17:30N 55°58' E 012°40'611.9
2018-Feb-23 17:00N 56°04' E 012°38'612.1
2018-Feb-23 16:30N 56°08' E 012°30'611.7
2018-Feb-23 16:00N 56°13' E 012°25'612.0
2018-Feb-23 15:30N 56°18' E 012°21'2212.0
2018-Feb-23 13:40N 56°40' E 012°11'912.4
2018-Feb-23 12:59N 56°48' E 012°07'912.6
2018-Feb-23 12:17N 56°56' E 012°03'413.0
2018-Feb-23 11:59N 57°00' E 012°01'812.8
2018-Feb-23 11:23N 57°07' E 011°56'512.6
2018-Feb-23 11:00N 57°12' E 011°53'612.9
2018-Feb-23 10:30N 57°18' E 011°50'612.8
2018-Feb-23 10:00N 57°24' E 011°45'612.6
2018-Feb-23 09:30N 57°30' E 011°40'612.0
2018-Feb-23 09:00N 57°36' E 011°39'611.1
2018-Feb-23 08:30N 57°40' E 011°46'4 7.4
2018-Feb-23 08:00N 57°41' E 011°52'0 0.0
2018-Feb-23 07:30N 57°41' E 011°52'0 0.0
2018-Feb-23 06:57N 57°41' E 011°52'0 0.0
2018-Feb-23 06:30N 57°41' E 011°52'0 0.0
2018-Feb-23 06:00N 57°41' E 011°52'0 0.0
2018-Feb-23 05:30N 57°41' E 011°52'0 0.0
2018-Feb-23 05:00N 57°41' E 011°52'0 0.0
2018-Feb-23 04:30N 57°41' E 011°52'0 0.0
2018-Feb-23 04:00N 57°41' E 011°52'0 0.0
2018-Feb-23 03:30N 57°41' E 011°52'0 0.0
2018-Feb-23 03:00N 57°41' E 011°52'0 0.0
2018-Feb-23 02:30N 57°41' E 011°52'0 0.0
2018-Feb-23 02:00N 57°41' E 011°52'0 0.0
2018-Feb-23 01:30N 57°41' E 011°52'0 0.0
2018-Feb-23 01:00N 57°41' E 011°52'0 0.0
2018-Feb-23 00:30N 57°41' E 011°52'0 0.0
2018-Feb-23 00:00N 57°41' E 011°52'0 0.0
2018-Feb-22 23:30N 57°41' E 011°52'0 0.0
2018-Feb-22 23:00N 57°41' E 011°52'0 0.0
2018-Feb-22 22:30N 57°41' E 011°52'0 0.0
2018-Feb-22 22:00N 57°41' E 011°52'0 0.0
2018-Feb-22 21:30N 57°41' E 011°52'0 0.0
2018-Feb-22 21:00N 57°41' E 011°52'0 0.0
2018-Feb-22 20:30N 57°41' E 011°52'0 0.0
2018-Feb-22 20:00N 57°41' E 011°52'0 0.0
2018-Feb-22 19:30N 57°41' E 011°52'0 0.0
2018-Feb-22 19:00N 57°41' E 011°52'0 0.0
2018-Feb-22 18:30N 57°41' E 011°52'0 0.0
2018-Feb-22 18:00N 57°41' E 011°52'0 0.0
2018-Feb-22 17:30N 57°41' E 011°52'0 0.0
2018-Feb-22 17:00N 57°41' E 011°52'0 0.0
2018-Feb-22 16:30N 57°41' E 011°52'0 0.0
2018-Feb-22 16:00N 57°41' E 011°52'0 0.0
2018-Feb-22 15:30N 57°41' E 011°52'0 0.0
2018-Feb-22 15:00N 57°41' E 011°52'0 0.0
2018-Feb-22 14:30N 57°41' E 011°52'0 0.3
2018-Feb-22 14:00N 57°41' E 011°52'2 4.0
2018-Feb-22 13:30N 57°41' E 011°49'713.0
2018-Feb-22 13:01N 57°36' E 011°40'3 4.8
2018-Feb-22 12:28N 57°34' E 011°40'0 0.0
2018-Feb-22 11:58N 57°34' E 011°40'0 0.0
2018-Feb-22 11:28N 57°34' E 011°40'0 0.0
2018-Feb-22 10:58N 57°34' E 011°40'0 0.0
2018-Feb-22 10:28N 57°34' E 011°40'0 0.2
2018-Feb-22 09:58N 57°34' E 011°40'0 0.1
2018-Feb-22 09:28N 57°34' E 011°40'0 0.0
2018-Feb-22 08:58N 57°34' E 011°40'0 0.1
2018-Feb-22 08:28N 57°34' E 011°40'0 0.0
2018-Feb-22 07:58N 57°34' E 011°40'0 0.0
2018-Feb-22 07:28N 57°34' E 011°40'0 0.0
2018-Feb-22 06:58N 57°34' E 011°40'0 0.0
2018-Feb-22 06:28N 57°34' E 011°40'0 0.0
2018-Feb-22 05:58N 57°34' E 011°40'0 0.0
2018-Feb-22 05:28N 57°34' E 011°40'0 0.0
2018-Feb-22 04:58N 57°34' E 011°40'0 0.0
2018-Feb-22 04:28N 57°34' E 011°40'0 0.1
2018-Feb-22 03:58N 57°34' E 011°40'0 0.0
2018-Feb-22 03:28N 57°34' E 011°40'0 0.0
2018-Feb-22 02:58N 57°34' E 011°40'0 0.0
2018-Feb-22 02:28N 57°34' E 011°40'0 0.0
2018-Feb-22 01:58N 57°34' E 011°40'0 0.1
2018-Feb-22 01:28N 57°34' E 011°40'0 0.0
2018-Feb-22 00:58N 57°34' E 011°40'0 0.0
2018-Feb-22 00:28N 57°34' E 011°40'0 0.0
2018-Feb-21 23:58N 57°34' E 011°40'0 0.0
2018-Feb-21 23:28N 57°34' E 011°40'0 0.1
2018-Feb-21 22:58N 57°34' E 011°40'0 0.0
2018-Feb-21 22:28N 57°34' E 011°40'0 0.0
2018-Feb-21 21:58N 57°34' E 011°40'0 0.0
2018-Feb-21 21:28N 57°34' E 011°40'0 0.0
2018-Feb-21 20:58N 57°34' E 011°40'0 0.0
2018-Feb-21 20:28N 57°34' E 011°40'0 0.0
2018-Feb-21 19:58N 57°34' E 011°40'0 0.1
2018-Feb-21 19:28N 57°34' E 011°40'1 1.5
2018-Feb-21 19:00N 57°34' E 011°40'1 1.6
2018-Feb-21 18:30N 57°35' E 011°41'510.0
2018-Feb-21 18:01N 57°30' E 011°39'815.4
2018-Feb-21 17:31N 57°23' E 011°45'815.4
2018-Feb-21 17:00N 57°16' E 011°51'715.0
2018-Feb-21 16:30N 57°09' E 011°56'714.7
2018-Feb-21 16:00N 57°02' E 011°60'4214.3
2018-Feb-21 13:03N 56°22' E 012°22'114.4
2018-Feb-21 13:00N 56°21' E 012°23'715.1
2018-Feb-21 12:30N 56°14' E 012°27'815.5
2018-Feb-21 12:00N 56°07' E 012°33'815.0
2018-Feb-21 11:30N 56°01' E 012°41'714.6
2018-Feb-21 11:00N 55°54' E 012°44'611.6
2018-Feb-21 10:30N 55°48' E 012°47'510.6
2018-Feb-21 10:00N 55°44' E 012°53'510.3
2018-Feb-21 09:30N 55°39' E 012°57'5 9.6
2018-Feb-21 09:00N 55°36' E 012°51'611.1
2018-Feb-21 08:30N 55°31' E 012°45'5 9.3
2018-Feb-21 08:00N 55°27' E 012°42'4 8.9
2018-Feb-21 07:30N 55°23' E 012°41'4 8.7
2018-Feb-21 07:00N 55°18' E 012°41'5 9.2
2018-Feb-21 06:30N 55°17' E 012°48'5 9.1
2018-Feb-21 06:00N 55°16' E 012°56'5 9.2
2018-Feb-21 05:30N 55°15' E 013°04'4 8.9
2018-Feb-21 05:00N 55°15' E 013°12'7 9.0
2018-Feb-21 04:17N 55°15' E 013°23'13 9.1
2018-Feb-21 02:49N 55°14' E 013°47'3 9.1
2018-Feb-21 02:27N 55°14' E 013°52'5 9.2
2018-Feb-21 01:51N 55°14' E 014°02'4 9.3
2018-Feb-21 01:26N 55°14' E 014°09'4 8.9
2018-Feb-21 00:57N 55°14' E 014°17'4 9.2
2018-Feb-21 00:28N 55°18' E 014°21'4 9.0
2018-Feb-20 23:59N 55°21' E 014°26'4 9.0
2018-Feb-20 23:30N 55°24' E 014°31'7 8.8
2018-Feb-20 22:42N 55°29' E 014°40'2 9.0
2018-Feb-20 22:30N 55°30' E 014°43'5 9.0
2018-Feb-20 22:00N 55°32' E 014°50'5 9.0
2018-Feb-20 21:27N 55°34' E 014°58'5 9.0
2018-Feb-20 20:57N 55°36' E 015°05'4 9.1
2018-Feb-20 20:30N 55°38' E 015°11'5 9.0
2018-Feb-20 20:00N 55°40' E 015°18'4 9.0
2018-Feb-20 19:30N 55°43' E 015°25'5 9.1
2018-Feb-20 19:01N 55°45' E 015°32'5 9.1
2018-Feb-20 18:30N 55°47' E 015°39'5 9.2
2018-Feb-20 18:00N 55°49' E 015°47'5 9.0
2018-Feb-20 17:30N 55°51' E 015°54'5 9.0
2018-Feb-20 17:00N 55°54' E 016°00'5 9.0
2018-Feb-20 16:30N 55°56' E 016°07'5 9.2
2018-Feb-20 16:01N 55°59' E 016°14'5 9.2
2018-Feb-20 15:30N 56°01' E 016°21'5 9.4
2018-Feb-20 15:00N 56°04' E 016°28'5 9.4
2018-Feb-20 14:30N 56°06' E 016°35'5 9.2
2018-Feb-20 14:00N 56°09' E 016°42'5 9.1
2018-Feb-20 13:30N 56°13' E 016°45'5 9.2
2018-Feb-20 13:01N 56°17' E 016°48'5 9.2
2018-Feb-20 12:29N 56°22' E 016°52'5 9.2
2018-Feb-20 11:59N 56°26' E 016°55'14812.7
2018-Feb-20 00:18N 58°52' E 017°43'25 6.9
2018-Feb-19 20:38N 59°17' E 017°34'310.5
2018-Feb-19 20:22N 59°19' E 017°32'30 1.2
2018-Feb-18 19:46N 58°50' E 017°44'310.3
2018-Feb-18 19:30N 58°48' E 017°46'612.1
2018-Feb-18 19:00N 58°43' E 017°52'14310.3
2018-Feb-18 05:01N 56°22' E 017°01'110.4
2018-Feb-18 04:57N 56°21' E 017°01'510.4
2018-Feb-18 04:30N 56°17' E 016°57'510.6
2018-Feb-18 04:00N 56°12' E 016°54'510.8
2018-Feb-18 03:30N 56°07' E 016°50'510.5
2018-Feb-18 03:00N 56°03' E 016°44'510.6
2018-Feb-18 02:31N 56°00' E 016°36'510.7
2018-Feb-18 02:00N 55°57' E 016°29'611.2
2018-Feb-18 01:30N 55°53' E 016°21'611.7
2018-Feb-18 01:00N 55°49' E 016°13'611.7
2018-Feb-18 00:30N 55°46' E 016°05'611.7
2018-Feb-18 00:01N 55°42' E 015°57'511.0
2018-Feb-17 23:30N 55°39' E 015°48'611.0
2018-Feb-17 23:00N 55°36' E 015°40'510.6
2018-Feb-17 22:31N 55°33' E 015°33'510.7
2018-Feb-17 22:00N 55°30' E 015°26'510.8
2018-Feb-17 21:31N 55°26' E 015°18'610.9
2018-Feb-17 21:00N 55°23' E 015°11'612.1
2018-Feb-17 20:30N 55°23' E 015°00'612.2
2018-Feb-17 20:00N 55°24' E 014°49'611.4
2018-Feb-17 19:29N 55°24' E 014°39'611.8
2018-Feb-17 19:01N 55°19' E 014°33'611.9
2018-Feb-17 18:30N 55°15' E 014°26'611.3
2018-Feb-17 18:00N 55°11' E 014°19'712.0
2018-Feb-17 17:24N 55°10' E 014°07'812.2
2018-Feb-17 16:46N 55°10' E 013°53'312.1
2018-Feb-17 16:30N 55°10' E 013°47'1712.1
2018-Feb-17 15:03N 55°12' E 013°17'112.0
2018-Feb-17 14:57N 55°12' E 013°14'612.0
2018-Feb-17 14:28N 55°12' E 013°04'511.8
2018-Feb-17 14:00N 55°14' E 012°55'611.8
2018-Feb-17 13:30N 55°16' E 012°46'510.6
2018-Feb-17 13:00N 55°19' E 012°38'611.8
2018-Feb-17 12:30N 55°25' E 012°40'611.8
2018-Feb-17 12:00N 55°31' E 012°44'5 9.8
2018-Feb-17 11:30N 55°34' E 012°49'510.0
2018-Feb-17 11:01N 55°38' E 012°55'510.7
2018-Feb-17 10:30N 55°43' E 012°52'612.8
2018-Feb-17 10:01N 55°48' E 012°46'612.5
2018-Feb-17 09:30N 55°54' E 012°39'611.4
2018-Feb-17 09:00N 55°59' E 012°40'612.5
2018-Feb-17 08:30N 56°05' E 012°36'612.9
2018-Feb-17 08:00N 56°09' E 012°27'713.1
2018-Feb-17 07:30N 56°15' E 012°23'5513.1
2018-Feb-17 03:19N 57°08' E 011°56'412.8
2018-Feb-17 03:00N 57°12' E 011°54'612.7
2018-Feb-17 02:31N 57°18' E 011°49'612.7
2018-Feb-17 02:01N 57°24' E 011°44'713.4
2018-Feb-17 01:30N 57°30' E 011°39'612.0
2018-Feb-17 01:00N 57°36' E 011°39'611.5
2018-Feb-17 00:30N 57°40' E 011°46'4 7.2
2018-Feb-17 00:00N 57°41' E 011°52'0 0.0
2018-Feb-16 23:28N 57°41' E 011°52'0 0.0
2018-Feb-16 22:58N 57°41' E 011°52'0 0.0
2018-Feb-16 22:28N 57°41' E 011°52'0 0.0
2018-Feb-16 21:58N 57°41' E 011°52'0 0.0
2018-Feb-16 21:28N 57°41' E 011°52'0 0.0
2018-Feb-16 20:58N 57°41' E 011°52'0 0.0
2018-Feb-16 20:28N 57°41' E 011°52'0 0.0
2018-Feb-16 19:58N 57°41' E 011°52'0 0.0
2018-Feb-16 19:28N 57°41' E 011°52'0 0.0
2018-Feb-16 18:58N 57°41' E 011°52'0 0.0
2018-Feb-16 18:28N 57°41' E 011°52'0 0.0
2018-Feb-16 17:58N 57°41' E 011°52'0 0.0
2018-Feb-16 17:28N 57°41' E 011°52'0 0.0
2018-Feb-16 16:58N 57°41' E 011°52'0 0.0
2018-Feb-16 16:28N 57°41' E 011°52'0 0.0
2018-Feb-16 15:58N 57°41' E 011°52'0 0.0
2018-Feb-16 15:28N 57°41' E 011°52'0 0.0
2018-Feb-16 14:58N 57°41' E 011°52'0 0.0
2018-Feb-16 14:28N 57°41' E 011°52'0 0.0
2018-Feb-16 13:58N 57°41' E 011°52'0 0.0
2018-Feb-16 13:28N 57°41' E 011°52'0 0.0
2018-Feb-16 12:58N 57°41' E 011°52'0 0.0
2018-Feb-16 12:28N 57°41' E 011°52'0 0.0
2018-Feb-16 11:58N 57°41' E 011°52'0 0.0
2018-Feb-16 11:28N 57°41' E 011°52'0 0.8
2018-Feb-16 11:00N 57°41' E 011°52'4 7.0
2018-Feb-16 10:30N 57°40' E 011°46'612.2
2018-Feb-16 10:00N 57°35' E 011°39'510.6
2018-Feb-16 09:30N 57°29' E 011°40'511.0
2018-Feb-16 09:00N 57°24' E 011°44'611.5
2018-Feb-16 08:30N 57°19' E 011°48'611.5
2018-Feb-16 08:00N 57°14' E 011°53'611.8
2018-Feb-16 07:29N 57°08' E 011°57'611.9
2018-Feb-16 07:00N 57°03' E 011°60'4011.5
2018-Feb-16 03:33N 56°25' E 012°20'311.6
2018-Feb-16 03:17N 56°22' E 012°22'411.2
2018-Feb-16 02:55N 56°18' E 012°24'410.9
2018-Feb-16 02:30N 56°14' E 012°27'5 9.6
2018-Feb-16 02:00N 56°09' E 012°30'713.4
2018-Feb-16 01:30N 56°04' E 012°38'714.7
2018-Feb-16 01:00N 55°57' E 012°43'714.4
2018-Feb-16 00:30N 55°50' E 012°45'815.3
2018-Feb-16 00:00N 55°44' E 012°52'611.8
2018-Feb-15 23:30N 55°38' E 012°56'611.4
2018-Feb-15 23:00N 55°34' E 012°49'611.3
2018-Feb-15 22:30N 55°29' E 012°43'714.7
2018-Feb-15 22:00N 55°22' E 012°41'611.6
2018-Feb-15 21:29N 55°17' E 012°47'613.4
2018-Feb-15 21:00N 55°16' E 012°59'713.6
2018-Feb-15 20:28N 55°16' E 013°12'1813.7
2018-Feb-15 19:11N 55°15' E 013°42'2112.8
2018-Feb-15 17:33N 55°16' E 014°19'112.5
2018-Feb-15 17:28N 55°17' E 014°20'712.8
2018-Feb-15 16:54N 55°23' E 014°28'513.3
2018-Feb-15 16:30N 55°27' E 014°34'713.7
2018-Feb-15 16:00N 55°31' E 014°44'713.7
2018-Feb-15 15:29N 55°34' E 014°55'713.7
2018-Feb-15 14:58N 55°38' E 015°06'613.5
2018-Feb-15 14:30N 55°41' E 015°16'713.6
2018-Feb-15 14:00N 55°44' E 015°26'713.7
2018-Feb-15 13:30N 55°47' E 015°37'713.7
2018-Feb-15 13:00N 55°51' E 015°47'713.7
2018-Feb-15 12:30N 55°54' E 015°58'713.8
2018-Feb-15 12:00N 55°58' E 016°08'611.5
2018-Feb-15 11:30N 56°01' E 016°17'4 8.0
2018-Feb-15 11:00N 56°03' E 016°23'4 8.1
2018-Feb-15 10:31N 56°05' E 016°30'4 8.9
2018-Feb-15 10:00N 56°07' E 016°37'612.4
2018-Feb-15 09:30N 56°11' E 016°45'612.7
2018-Feb-15 09:00N 56°17' E 016°49'612.7
2018-Feb-15 08:30N 56°23' E 016°54'  

Dump ship's entire track history